sensor_id;sensor_type;location;lat;lon;timestamp;P1;durP1;ratioP1;P2;durP2;ratioP2
71296;SDS011;59082;50.658;4.608;2023-02-15T05:24:52;50.47;;;25.17;;
71296;SDS011;59082;50.658;4.608;2023-02-15T05:27:36;53.97;;;24.80;;
71296;SDS011;59082;50.658;4.608;2023-02-15T05:30:20;60.22;;;26.67;;
71296;SDS011;59082;50.658;4.608;2023-02-15T05:32:45;64.68;;;29.13;;
71296;SDS011;59082;50.658;4.608;2023-02-15T05:35:12;69.77;;;28.00;;
71296;SDS011;59082;50.658;4.608;2023-02-15T05:37:40;70.88;;;29.80;;
71296;SDS011;59082;50.658;4.608;2023-02-15T05:40:05;60.93;;;29.57;;
71296;SDS011;59082;50.658;4.608;2023-02-15T05:42:31;64.90;;;29.95;;
71296;SDS011;59082;50.658;4.608;2023-02-15T05:44:57;56.47;;;27.10;;
71296;SDS011;59082;50.658;4.608;2023-02-15T05:47:23;55.85;;;25.42;;
71296;SDS011;59082;50.658;4.608;2023-02-15T05:49:48;47.70;;;24.03;;
71296;SDS011;59082;50.658;4.608;2023-02-15T05:52:14;52.53;;;26.37;;
71296;SDS011;59082;50.658;4.608;2023-02-15T05:54:39;58.80;;;26.30;;
71296;SDS011;59082;50.658;4.608;2023-02-15T05:57:05;53.28;;;24.05;;
71296;SDS011;59082;50.658;4.608;2023-02-15T05:59:30;53.23;;;26.07;;
71296;SDS011;59082;50.658;4.608;2023-02-15T06:01:56;65.73;;;27.20;;
71296;SDS011;59082;50.658;4.608;2023-02-15T06:04:21;61.92;;;24.80;;
71296;SDS011;59082;50.658;4.608;2023-02-15T06:06:46;54.93;;;27.20;;
71296;SDS011;59082;50.658;4.608;2023-02-15T06:09:12;66.30;;;28.20;;
71296;SDS011;59082;50.658;4.608;2023-02-15T06:11:38;63.45;;;29.48;;
71296;SDS011;59082;50.658;4.608;2023-02-15T06:14:03;62.37;;;27.97;;
71296;SDS011;59082;50.658;4.608;2023-02-15T06:16:29;56.93;;;28.30;;
71296;SDS011;59082;50.658;4.608;2023-02-15T06:18:55;50.58;;;25.77;;
71296;SDS011;59082;50.658;4.608;2023-02-15T06:21:21;51.17;;;25.45;;
71296;SDS011;59082;50.658;4.608;2023-02-15T06:23:46;53.27;;;24.83;;
71296;SDS011;59082;50.658;4.608;2023-02-15T06:26:12;59.88;;;28.20;;
71296;SDS011;59082;50.658;4.608;2023-02-15T06:28:37;48.28;;;24.15;;
71296;SDS011;59082;50.658;4.608;2023-02-15T06:31:03;52.13;;;24.00;;
71296;SDS011;59082;50.658;4.608;2023-02-15T06:33:29;49.28;;;23.33;;
71296;SDS011;59082;50.658;4.608;2023-02-15T06:35:59;48.20;;;23.52;;
71296;SDS011;59082;50.658;4.608;2023-02-15T06:38:24;49.40;;;22.50;;
71296;SDS011;59082;50.658;4.608;2023-02-15T06:40:50;51.17;;;23.75;;
71296;SDS011;59082;50.658;4.608;2023-02-15T06:43:16;57.20;;;26.13;;
71296;SDS011;59082;50.658;4.608;2023-02-15T06:45:41;58.15;;;24.40;;
71296;SDS011;59082;50.658;4.608;2023-02-15T06:48:07;45.85;;;22.90;;
71296;SDS011;59082;50.658;4.608;2023-02-15T06:50:33;49.20;;;24.00;;
71296;SDS011;59082;50.658;4.608;2023-02-15T06:52:59;51.22;;;23.70;;
71296;SDS011;59082;50.658;4.608;2023-02-15T06:55:25;53.17;;;24.15;;
71296;SDS011;59082;50.658;4.608;2023-02-15T06:57:51;48.53;;;23.95;;
71296;SDS011;59082;50.658;4.608;2023-02-15T07:00:16;43.63;;;21.00;;
71296;SDS011;59082;50.658;4.608;2023-02-15T07:02:43;52.88;;;22.75;;
71296;SDS011;59082;50.658;4.608;2023-02-15T07:05:09;47.47;;;22.70;;
71296;SDS011;59082;50.658;4.608;2023-02-15T07:07:35;51.50;;;23.73;;
71296;SDS011;59082;50.658;4.608;2023-02-15T07:10:00;42.03;;;21.50;;
71296;SDS011;59082;50.658;4.608;2023-02-15T07:12:26;46.90;;;23.50;;
71296;SDS011;59082;50.658;4.608;2023-02-15T07:15:12;49.53;;;23.52;;
71296;SDS011;59082;50.658;4.608;2023-02-15T07:17:39;41.95;;;21.85;;
71296;SDS011;59082;50.658;4.608;2023-02-15T07:20:10;48.13;;;22.73;;
71296;SDS011;59082;50.658;4.608;2023-02-15T07:22:37;42.53;;;19.83;;
71296;SDS011;59082;50.658;4.608;2023-02-15T07:25:03;45.17;;;20.77;;
71296;SDS011;59082;50.658;4.608;2023-02-15T07:27:30;44.37;;;20.93;;
71296;SDS011;59082;50.658;4.608;2023-02-15T07:29:57;46.97;;;22.90;;
71296;SDS011;59082;50.658;4.608;2023-02-15T07:32:22;46.97;;;21.83;;
71296;SDS011;59082;50.658;4.608;2023-02-15T07:34:48;41.90;;;21.33;;
71296;SDS011;59082;50.658;4.608;2023-02-15T07:37:13;41.57;;;20.83;;
71296;SDS011;59082;50.658;4.608;2023-02-15T07:39:39;40.05;;;20.45;;
71296;SDS011;59082;50.658;4.608;2023-02-15T07:42:04;38.43;;;20.07;;
71296;SDS011;59082;50.658;4.608;2023-02-15T07:44:30;33.57;;;18.20;;
71296;SDS011;59082;50.658;4.608;2023-02-15T07:46:56;38.40;;;19.35;;
71296;SDS011;59082;50.658;4.608;2023-02-15T07:49:21;38.60;;;19.50;;
71296;SDS011;59082;50.658;4.608;2023-02-15T07:51:47;37.60;;;19.03;;
71296;SDS011;59082;50.658;4.608;2023-02-15T07:54:12;41.00;;;21.33;;
71296;SDS011;59082;50.658;4.608;2023-02-15T07:56:38;35.07;;;18.97;;
71296;SDS011;59082;50.658;4.608;2023-02-15T07:59:03;34.73;;;18.67;;
71296;SDS011;59082;50.658;4.608;2023-02-15T08:01:31;33.13;;;17.80;;
71296;SDS011;59082;50.658;4.608;2023-02-15T08:03:58;39.42;;;19.05;;
71296;SDS011;59082;50.658;4.608;2023-02-15T08:06:25;36.20;;;19.37;;
71296;SDS011;59082;50.658;4.608;2023-02-15T08:08:52;34.20;;;18.80;;
71296;SDS011;59082;50.658;4.608;2023-02-15T08:11:28;37.88;;;19.88;;
71296;SDS011;59082;50.658;4.608;2023-02-15T08:16:33;33.05;;;18.70;;
71296;SDS011;59082;50.658;4.608;2023-02-15T08:19:09;29.40;;;17.27;;
71296;SDS011;59082;50.658;4.608;2023-02-15T08:21:36;29.40;;;17.85;;
71296;SDS011;59082;50.658;4.608;2023-02-15T08:24:03;30.65;;;17.80;;
71296;SDS011;59082;50.658;4.608;2023-02-15T08:26:30;30.95;;;18.67;;
71296;SDS011;59082;50.658;4.608;2023-02-15T08:28:57;31.67;;;18.55;;
71296;SDS011;59082;50.658;4.608;2023-02-15T08:31:23;27.90;;;17.07;;
71296;SDS011;59082;50.658;4.608;2023-02-15T08:33:49;27.33;;;16.45;;
71296;SDS011;59082;50.658;4.608;2023-02-15T08:36:16;30.40;;;15.57;;
71296;SDS011;59082;50.658;4.608;2023-02-15T08:38:44;27.50;;;16.35;;
71296;SDS011;59082;50.658;4.608;2023-02-15T08:43:39;25.20;;;16.80;;
71296;SDS011;59082;50.658;4.608;2023-02-15T08:46:06;28.50;;;17.53;;
71296;SDS011;59082;50.658;4.608;2023-02-15T08:48:31;30.77;;;17.52;;
71296;SDS011;59082;50.658;4.608;2023-02-15T08:50:57;22.75;;;15.30;;
71296;SDS011;59082;50.658;4.608;2023-02-15T08:53:23;23.77;;;14.57;;
71296;SDS011;59082;50.658;4.608;2023-02-15T08:55:57;27.60;;;14.40;;
71296;SDS011;59082;50.658;4.608;2023-02-15T08:58:23;27.27;;;14.35;;
71296;SDS011;59082;50.658;4.608;2023-02-15T09:00:49;24.60;;;13.07;;
71296;SDS011;59082;50.658;4.608;2023-02-15T09:03:15;23.30;;;15.05;;
71296;SDS011;59082;50.658;4.608;2023-02-15T09:05:40;23.30;;;13.10;;
71296;SDS011;59082;50.658;4.608;2023-02-15T09:08:05;22.70;;;13.83;;
71296;SDS011;59082;50.658;4.608;2023-02-15T09:10:31;22.17;;;12.93;;
71296;SDS011;59082;50.658;4.608;2023-02-15T09:12:56;24.40;;;14.30;;
71296;SDS011;59082;50.658;4.608;2023-02-15T09:15:22;23.10;;;14.70;;
71296;SDS011;59082;50.658;4.608;2023-02-15T09:17:47;23.38;;;15.68;;
71296;SDS011;59082;50.658;4.608;2023-02-15T09:20:13;20.10;;;14.67;;
71296;SDS011;59082;50.658;4.608;2023-02-15T09:22:38;22.07;;;13.40;;
71296;SDS011;59082;50.658;4.608;2023-02-15T09:25:04;21.30;;;14.53;;
71296;SDS011;59082;50.658;4.608;2023-02-15T09:27:30;21.90;;;14.45;;
71296;SDS011;59082;50.658;4.608;2023-02-15T09:29:55;22.23;;;13.30;;
71296;SDS011;59082;50.658;4.608;2023-02-15T09:32:21;22.67;;;14.50;;
71296;SDS011;59082;50.658;4.608;2023-02-15T09:34:47;21.80;;;14.18;;
71296;SDS011;59082;50.658;4.608;2023-02-15T09:37:13;24.73;;;14.80;;
71296;SDS011;59082;50.658;4.608;2023-02-15T09:39:39;22.00;;;13.80;;
71296;SDS011;59082;50.658;4.608;2023-02-15T09:42:16;27.83;;;14.77;;
71296;SDS011;59082;50.658;4.608;2023-02-15T10:02:03;20.83;;;15.35;;
71296;SDS011;59082;50.658;4.608;2023-02-15T10:07:36;23.05;;;15.23;;
71296;SDS011;59082;50.658;4.608;2023-02-15T10:26:48;22.85;;;14.60;;
71296;SDS011;59082;50.658;4.608;2023-02-15T10:37:37;30.70;;;17.50;;
71296;SDS011;59082;50.658;4.608;2023-02-15T11:00:17;28.45;;;17.65;;
71296;SDS011;59082;50.658;4.608;2023-02-15T11:07:50;27.55;;;18.83;;
71296;SDS011;59082;50.658;4.608;2023-02-15T11:13:04;29.98;;;15.85;;
71296;SDS011;59082;50.658;4.608;2023-02-15T11:18:28;26.23;;;14.37;;
71296;SDS011;59082;50.658;4.608;2023-02-15T11:21:13;30.05;;;16.25;;
71296;SDS011;59082;50.658;4.608;2023-02-15T11:23:45;26.15;;;14.93;;
71296;SDS011;59082;50.658;4.608;2023-02-15T11:28:51;26.45;;;15.38;;
71296;SDS011;59082;50.658;4.608;2023-02-15T11:31:21;26.70;;;15.87;;
71296;SDS011;59082;50.658;4.608;2023-02-15T11:33:55;26.30;;;16.42;;
71296;SDS011;59082;50.658;4.608;2023-02-15T11:36:37;32.42;;;17.63;;
71296;SDS011;59082;50.658;4.608;2023-02-15T11:39:09;28.20;;;16.33;;
71296;SDS011;59082;50.658;4.608;2023-02-15T11:41:50;25.42;;;15.82;;
71296;SDS011;59082;50.658;4.608;2023-02-15T11:44:21;25.70;;;16.23;;
71296;SDS011;59082;50.658;4.608;2023-02-15T11:46:51;26.48;;;16.63;;
71296;SDS011;59082;50.658;4.608;2023-02-15T11:49:21;25.27;;;16.67;;
71296;SDS011;59082;50.658;4.608;2023-02-15T11:51:55;27.33;;;16.67;;
71296;SDS011;59082;50.658;4.608;2023-02-15T11:54:29;24.83;;;16.52;;
71296;SDS011;59082;50.658;4.608;2023-02-15T11:59:44;26.70;;;15.63;;
71296;SDS011;59082;50.658;4.608;2023-02-15T12:02:21;27.73;;;15.18;;
71296;SDS011;59082;50.658;4.608;2023-02-15T12:04:58;29.33;;;17.02;;
71296;SDS011;59082;50.658;4.608;2023-02-15T12:07:28;24.73;;;16.02;;
71296;SDS011;59082;50.658;4.608;2023-02-15T12:10:03;29.60;;;16.53;;
71296;SDS011;59082;50.658;4.608;2023-02-15T12:12:34;25.80;;;15.30;;
71296;SDS011;59082;50.658;4.608;2023-02-15T12:15:02;28.25;;;16.30;;
71296;SDS011;59082;50.658;4.608;2023-02-15T12:17:34;26.80;;;15.90;;
71296;SDS011;59082;50.658;4.608;2023-02-15T12:22:39;25.83;;;16.27;;
71296;SDS011;59082;50.658;4.608;2023-02-15T12:25:56;26.48;;;15.05;;
71296;SDS011;59082;50.658;4.608;2023-02-15T12:27:56;29.02;;;15.55;;
71296;SDS011;59082;50.658;4.608;2023-02-15T12:30:23;27.33;;;15.90;;
71296;SDS011;59082;50.658;4.608;2023-02-15T12:32:56;32.28;;;16.73;;
71296;SDS011;59082;50.658;4.608;2023-02-15T12:35:32;27.35;;;14.57;;
71296;SDS011;59082;50.658;4.608;2023-02-15T12:40:35;27.10;;;15.63;;
71296;SDS011;59082;50.658;4.608;2023-02-15T12:43:03;28.48;;;17.77;;
71296;SDS011;59082;50.658;4.608;2023-02-15T12:45:34;29.48;;;16.02;;
71296;SDS011;59082;50.658;4.608;2023-02-15T12:50:45;26.38;;;16.48;;
71296;SDS011;59082;50.658;4.608;2023-02-15T12:53:31;26.03;;;15.07;;
71296;SDS011;59082;50.658;4.608;2023-02-15T12:58:43;29.00;;;15.73;;
71296;SDS011;59082;50.658;4.608;2023-02-15T13:03:56;27.77;;;15.90;;
71296;SDS011;59082;50.658;4.608;2023-02-15T13:06:31;24.57;;;16.27;;
71296;SDS011;59082;50.658;4.608;2023-02-15T13:09:15;28.65;;;17.05;;
71296;SDS011;59082;50.658;4.608;2023-02-15T13:11:42;28.42;;;17.50;;
71296;SDS011;59082;50.658;4.608;2023-02-15T13:16:45;30.88;;;15.70;;
71296;SDS011;59082;50.658;4.608;2023-02-15T13:19:14;29.00;;;16.97;;
71296;SDS011;59082;50.658;4.608;2023-02-15T13:21:47;29.50;;;16.33;;
71296;SDS011;59082;50.658;4.608;2023-02-15T13:24:18;28.27;;;16.40;;
71296;SDS011;59082;50.658;4.608;2023-02-15T13:26:48;29.55;;;16.63;;
71296;SDS011;59082;50.658;4.608;2023-02-15T13:29:24;28.48;;;16.67;;
71296;SDS011;59082;50.658;4.608;2023-02-15T13:31:55;30.03;;;17.77;;
71296;SDS011;59082;50.658;4.608;2023-02-15T13:34:24;25.83;;;15.38;;
71296;SDS011;59082;50.658;4.608;2023-02-15T13:39:51;29.75;;;17.27;;
71296;SDS011;59082;50.658;4.608;2023-02-15T13:42:22;31.75;;;17.70;;
71296;SDS011;59082;50.658;4.608;2023-02-15T13:44:56;28.17;;;16.47;;
71296;SDS011;59082;50.658;4.608;2023-02-15T13:56:16;30.77;;;17.35;;
71296;SDS011;59082;50.658;4.608;2023-02-15T14:12:27;28.33;;;15.37;;
71296;SDS011;59082;50.658;4.608;2023-02-15T14:20:44;28.15;;;16.33;;
71296;SDS011;59082;50.658;4.608;2023-02-15T14:31:00;31.00;;;18.43;;
71296;SDS011;59082;50.658;4.608;2023-02-15T14:33:37;30.70;;;16.73;;
71296;SDS011;59082;50.658;4.608;2023-02-15T14:36:11;26.15;;;17.05;;
71296;SDS011;59082;50.658;4.608;2023-02-15T14:39:03;32.63;;;17.75;;
71296;SDS011;59082;50.658;4.608;2023-02-15T14:44:50;26.77;;;15.83;;
71296;SDS011;59082;50.658;4.608;2023-02-15T14:55:45;26.30;;;16.63;;
71296;SDS011;59082;50.658;4.608;2023-02-15T14:58:11;30.47;;;17.43;;
71296;SDS011;59082;50.658;4.608;2023-02-15T15:00:39;29.42;;;17.58;;
71296;SDS011;59082;50.658;4.608;2023-02-15T15:03:11;31.13;;;17.08;;
71296;SDS011;59082;50.658;4.608;2023-02-15T15:05:54;28.97;;;16.23;;
71296;SDS011;59082;50.658;4.608;2023-02-15T15:08:26;32.80;;;17.85;;
71296;SDS011;59082;50.658;4.608;2023-02-15T15:16:25;31.38;;;17.92;;
71296;SDS011;59082;50.658;4.608;2023-02-15T15:19:03;29.43;;;16.90;;
71296;SDS011;59082;50.658;4.608;2023-02-15T15:30:02;32.17;;;16.95;;
71296;SDS011;59082;50.658;4.608;2023-02-15T15:46:39;30.92;;;17.23;;
71296;SDS011;59082;50.658;4.608;2023-02-15T15:49:29;32.85;;;18.77;;
71296;SDS011;59082;50.658;4.608;2023-02-15T15:52:01;30.80;;;18.37;;
71296;SDS011;59082;50.658;4.608;2023-02-15T15:54:28;33.50;;;18.48;;
71296;SDS011;59082;50.658;4.608;2023-02-15T15:56:59;36.67;;;18.52;;
71296;SDS011;59082;50.658;4.608;2023-02-15T15:59:28;32.08;;;17.55;;
71296;SDS011;59082;50.658;4.608;2023-02-15T16:01:56;32.65;;;19.63;;
71296;SDS011;59082;50.658;4.608;2023-02-15T16:04:32;32.37;;;19.07;;
71296;SDS011;59082;50.658;4.608;2023-02-15T16:12:30;30.60;;;18.17;;
71296;SDS011;59082;50.658;4.608;2023-02-15T16:14:58;32.60;;;18.35;;
71296;SDS011;59082;50.658;4.608;2023-02-15T16:17:38;31.83;;;18.90;;
71296;SDS011;59082;50.658;4.608;2023-02-15T16:22:47;31.40;;;18.92;;
71296;SDS011;59082;50.658;4.608;2023-02-15T16:25:31;33.00;;;18.15;;
71296;SDS011;59082;50.658;4.608;2023-02-15T16:28:12;30.67;;;19.73;;
71296;SDS011;59082;50.658;4.608;2023-02-15T16:30:39;32.10;;;18.27;;
71296;SDS011;59082;50.658;4.608;2023-02-15T16:33:14;34.35;;;19.77;;
71296;SDS011;59082;50.658;4.608;2023-02-15T16:35:53;34.53;;;18.67;;
71296;SDS011;59082;50.658;4.608;2023-02-15T16:41:06;32.20;;;19.30;;
71296;SDS011;59082;50.658;4.608;2023-02-15T16:43:33;37.40;;;21.83;;
71296;SDS011;59082;50.658;4.608;2023-02-15T16:46:06;37.80;;;21.00;;
71296;SDS011;59082;50.658;4.608;2023-02-15T16:48:38;34.38;;;20.83;;
71296;SDS011;59082;50.658;4.608;2023-02-15T16:51:06;36.00;;;20.55;;
71296;SDS011;59082;50.658;4.608;2023-02-15T16:53:32;32.45;;;20.85;;
71296;SDS011;59082;50.658;4.608;2023-02-15T16:55:59;37.23;;;20.40;;
71296;SDS011;59082;50.658;4.608;2023-02-15T16:58:36;34.33;;;21.60;;
71296;SDS011;59082;50.658;4.608;2023-02-15T17:01:06;34.73;;;21.17;;
71296;SDS011;59082;50.658;4.608;2023-02-15T17:03:34;34.92;;;19.60;;
71296;SDS011;59082;50.658;4.608;2023-02-15T17:06:01;35.35;;;20.55;;
71296;SDS011;59082;50.658;4.608;2023-02-15T17:19:21;42.22;;;22.50;;
71296;SDS011;59082;50.658;4.608;2023-02-15T17:21:49;42.25;;;22.80;;
71296;SDS011;59082;50.658;4.608;2023-02-15T17:27:27;42.38;;;23.75;;
71296;SDS011;59082;50.658;4.608;2023-02-15T17:29:57;39.95;;;22.33;;
71296;SDS011;59082;50.658;4.608;2023-02-15T17:32:34;42.28;;;22.23;;
71296;SDS011;59082;50.658;4.608;2023-02-15T17:35:14;37.42;;;21.90;;
71296;SDS011;59082;50.658;4.608;2023-02-15T17:37:45;48.00;;;26.27;;
71296;SDS011;59082;50.658;4.608;2023-02-15T17:42:51;40.25;;;25.23;;
71296;SDS011;59082;50.658;4.608;2023-02-15T17:45:17;46.58;;;26.35;;
71296;SDS011;59082;50.658;4.608;2023-02-15T17:47:43;76.13;;;39.03;;
71296;SDS011;59082;50.658;4.608;2023-02-15T17:50:30;70.35;;;37.45;;
71296;SDS011;59082;50.658;4.608;2023-02-15T17:52:56;105.18;;;52.50;;
71296;SDS011;59082;50.658;4.608;2023-02-15T17:55:23;76.00;;;38.13;;
71296;SDS011;59082;50.658;4.608;2023-02-15T17:58:09;124.07;;;60.08;;
71296;SDS011;59082;50.658;4.608;2023-02-15T18:03:54;57.08;;;33.72;;
71296;SDS011;59082;50.658;4.608;2023-02-15T18:06:39;48.92;;;26.73;;
71296;SDS011;59082;50.658;4.608;2023-02-15T18:09:25;51.05;;;25.20;;
71296;SDS011;59082;50.658;4.608;2023-02-15T18:12:19;43.55;;;22.80;;
71296;SDS011;59082;50.658;4.608;2023-02-15T18:14:47;41.93;;;23.33;;
71296;SDS011;59082;50.658;4.608;2023-02-15T18:17:13;39.95;;;23.10;;
71296;SDS011;59082;50.658;4.608;2023-02-15T18:19:41;41.80;;;23.65;;
71296;SDS011;59082;50.658;4.608;2023-02-15T18:22:12;48.40;;;22.90;;
71296;SDS011;59082;50.658;4.608;2023-02-15T18:24:40;41.80;;;24.25;;
71296;SDS011;59082;50.658;4.608;2023-02-15T18:27:05;48.27;;;25.43;;
71296;SDS011;59082;50.658;4.608;2023-02-15T18:29:31;41.78;;;24.98;;
71296;SDS011;59082;50.658;4.608;2023-02-15T18:31:57;42.97;;;25.43;;
71296;SDS011;59082;50.658;4.608;2023-02-15T18:34:26;44.00;;;24.30;;
71296;SDS011;59082;50.658;4.608;2023-02-15T18:36:54;43.92;;;24.15;;
71296;SDS011;59082;50.658;4.608;2023-02-15T18:41:55;41.83;;;24.38;;
71296;SDS011;59082;50.658;4.608;2023-02-15T18:44:21;44.13;;;25.70;;
71296;SDS011;59082;50.658;4.608;2023-02-15T18:46:47;40.17;;;23.23;;
71296;SDS011;59082;50.658;4.608;2023-02-15T18:49:13;43.20;;;23.27;;
71296;SDS011;59082;50.658;4.608;2023-02-15T18:51:38;42.33;;;24.50;;
71296;SDS011;59082;50.658;4.608;2023-02-15T18:54:05;45.75;;;23.52;;
71296;SDS011;59082;50.658;4.608;2023-02-15T18:56:39;45.40;;;23.88;;
71296;SDS011;59082;50.658;4.608;2023-02-15T18:59:05;40.20;;;22.60;;
71296;SDS011;59082;50.658;4.608;2023-02-15T19:01:30;42.88;;;23.15;;
71296;SDS011;59082;50.658;4.608;2023-02-15T19:03:56;39.90;;;22.33;;
71296;SDS011;59082;50.658;4.608;2023-02-15T19:06:21;42.37;;;22.13;;
71296;SDS011;59082;50.658;4.608;2023-02-15T19:08:49;40.42;;;22.88;;
71296;SDS011;59082;50.658;4.608;2023-02-15T19:11:17;38.65;;;22.35;;
71296;SDS011;59082;50.658;4.608;2023-02-15T19:13:45;41.20;;;23.48;;
71296;SDS011;59082;50.658;4.608;2023-02-15T19:19:05;41.63;;;25.73;;
71296;SDS011;59082;50.658;4.608;2023-02-15T19:21:31;38.87;;;23.60;;
71296;SDS011;59082;50.658;4.608;2023-02-15T19:24:00;40.08;;;23.42;;
71296;SDS011;59082;50.658;4.608;2023-02-15T19:29:14;43.87;;;24.53;;
71296;SDS011;59082;50.658;4.608;2023-02-15T19:31:48;45.28;;;25.52;;
71296;SDS011;59082;50.658;4.608;2023-02-15T19:34:15;40.92;;;23.52;;
71296;SDS011;59082;50.658;4.608;2023-02-15T19:36:45;43.37;;;24.57;;
71296;SDS011;59082;50.658;4.608;2023-02-15T19:39:23;45.13;;;25.08;;
71296;SDS011;59082;50.658;4.608;2023-02-15T19:41:57;44.42;;;23.90;;
71296;SDS011;59082;50.658;4.608;2023-02-15T19:44:23;40.53;;;22.83;;
71296;SDS011;59082;50.658;4.608;2023-02-15T19:46:48;57.83;;;30.35;;
71296;SDS011;59082;50.658;4.608;2023-02-15T19:49:14;72.80;;;38.63;;
71296;SDS011;59082;50.658;4.608;2023-02-15T19:51:40;46.30;;;27.27;;
71296;SDS011;59082;50.658;4.608;2023-02-15T19:54:48;45.07;;;24.33;;
71296;SDS011;59082;50.658;4.608;2023-02-15T19:56:55;50.10;;;26.95;;
71296;SDS011;59082;50.658;4.608;2023-02-15T19:59:29;51.05;;;28.10;;
71296;SDS011;59082;50.658;4.608;2023-02-15T20:01:55;48.87;;;26.30;;
71296;SDS011;59082;50.658;4.608;2023-02-15T20:04:21;55.17;;;29.05;;
71296;SDS011;59082;50.658;4.608;2023-02-15T20:06:47;52.97;;;28.17;;
71296;SDS011;59082;50.658;4.608;2023-02-15T20:09:23;49.57;;;25.43;;
71296;SDS011;59082;50.658;4.608;2023-02-15T20:11:52;45.63;;;26.55;;
71296;SDS011;59082;50.658;4.608;2023-02-15T20:14:18;45.92;;;25.35;;
71296;SDS011;59082;50.658;4.608;2023-02-15T20:16:44;49.83;;;28.13;;
71296;SDS011;59082;50.658;4.608;2023-02-15T20:19:10;58.30;;;31.90;;
71296;SDS011;59082;50.658;4.608;2023-02-15T20:21:37;48.55;;;27.65;;
71296;SDS011;59082;50.658;4.608;2023-02-15T20:24:03;57.45;;;28.90;;
71296;SDS011;59082;50.658;4.608;2023-02-15T20:26:30;49.90;;;25.65;;
71296;SDS011;59082;50.658;4.608;2023-02-15T20:28:57;43.83;;;24.27;;
71296;SDS011;59082;50.658;4.608;2023-02-15T20:31:23;47.60;;;26.38;;
71296;SDS011;59082;50.658;4.608;2023-02-15T20:33:50;49.00;;;25.08;;
71296;SDS011;59082;50.658;4.608;2023-02-15T20:36:17;45.10;;;27.05;;
71296;SDS011;59082;50.658;4.608;2023-02-15T20:38:45;48.08;;;28.00;;
71296;SDS011;59082;50.658;4.608;2023-02-15T20:41:13;52.93;;;28.17;;
71296;SDS011;59082;50.658;4.608;2023-02-15T20:43:58;48.45;;;25.52;;
71296;SDS011;59082;50.658;4.608;2023-02-15T20:46:23;55.40;;;28.85;;
71296;SDS011;59082;50.658;4.608;2023-02-15T20:48:49;54.20;;;29.03;;
71296;SDS011;59082;50.658;4.608;2023-02-15T20:51:15;48.43;;;24.90;;
71296;SDS011;59082;50.658;4.608;2023-02-15T20:53:42;48.28;;;24.27;;
71296;SDS011;59082;50.658;4.608;2023-02-15T20:56:27;47.80;;;26.63;;
71296;SDS011;59082;50.658;4.608;2023-02-15T20:58:53;49.85;;;26.85;;
71296;SDS011;59082;50.658;4.608;2023-02-15T21:01:18;48.77;;;24.53;;
71296;SDS011;59082;50.658;4.608;2023-02-15T21:03:45;50.40;;;26.00;;
71296;SDS011;59082;50.658;4.608;2023-02-15T21:06:12;50.42;;;26.48;;
71296;SDS011;59082;50.658;4.608;2023-02-15T21:08:40;56.13;;;27.73;;
71296;SDS011;59082;50.658;4.608;2023-02-15T21:11:19;47.17;;;26.13;;
71296;SDS011;59082;50.658;4.608;2023-02-15T21:13:47;46.03;;;26.73;;
71296;SDS011;59082;50.658;4.608;2023-02-15T21:16:14;60.13;;;30.20;;
71296;SDS011;59082;50.658;4.608;2023-02-15T21:18:40;55.40;;;26.48;;
71296;SDS011;59082;50.658;4.608;2023-02-15T21:21:11;59.73;;;29.30;;
71296;SDS011;59082;50.658;4.608;2023-02-15T21:23:40;55.90;;;28.13;;
71296;SDS011;59082;50.658;4.608;2023-02-15T21:26:14;56.78;;;28.48;;
71296;SDS011;59082;50.658;4.608;2023-02-15T21:28:44;47.90;;;25.00;;
71296;SDS011;59082;50.658;4.608;2023-02-15T21:31:16;52.03;;;26.90;;
71296;SDS011;59082;50.658;4.608;2023-02-15T21:33:48;51.38;;;27.20;;
